WetterOnline ( https://www.wetteronline.at )

Wetter aktuell Plön

Aktuelles Wetter: Dörnick (28m)

6-stündlich | Neueste Meldungen
Ortszeit Temperatur Wetter
So, 15.12. 19:00 6.8° C bewölkt
So, 15.12. 13:00 7.6° C bewölkt
So, 15.12. 7:00 3.2° C wolkig
So, 15.12. 1:00 4.1° C wolkig
Sa, 14.12. 19:00 4.7° C bewölkt
Sa, 14.12. 13:00 4.0° C Sprühregen
Sa, 14.12. 7:00 3.2° C bewölkt
Sa, 14.12. 1:00 0.7° C Schneefall
Ortszeit Temperatur Wetter
So, 15.12. 22:30 5.9° C fast wolkenlos
So, 15.12. 22:20 5.9° C fast wolkenlos
So, 15.12. 22:10 6.0° C leicht bewölkt
So, 15.12. 22:00 6.2° C fast wolkenlos
So, 15.12. 21:50 6.2° C fast wolkenlos
So, 15.12. 21:40 6.2° C fast wolkenlos
So, 15.12. 21:30 6.2° C fast wolkenlos
So, 15.12. 21:00 6.3° C wolkenlos
So, 15.12. 20:30 6.4° C wolkenlos
So, 15.12. 20:00 6.4° C leicht bewölkt
So, 15.12. 19:30 6.7° C bewölkt
Ortszeit Relative Feuchte Sichtweite
So, 15.12. 19:00 75% 30 km
So, 15.12. 13:00 59% 35 km
So, 15.12. 7:00 85% 24 km
So, 15.12. 1:00 83% 35 km
Sa, 14.12. 19:00 82% 35 km
Sa, 14.12. 13:00 93% 19 km
Sa, 14.12. 7:00 97% 4.1 km
Sa, 14.12. 1:00 96% 2.8 km
Ortszeit Relative Feuchte Sichtweite
So, 15.12. 22:30 86% 35 km
So, 15.12. 22:20 86% -
So, 15.12. 22:10 85% -
So, 15.12. 22:00 81% 40 km
So, 15.12. 21:50 81% -
So, 15.12. 21:40 81% -
So, 15.12. 21:30 82% 35 km
So, 15.12. 21:00 82% 30 km
So, 15.12. 20:30 81% 30 km
So, 15.12. 20:00 81% 30 km
So, 15.12. 19:30 78% 35 km
Ortszeit Niederschlagsmenge Niederschlagsart
So, 15.12. 19:00 3 l/m2 in 12 Std. Regen
So, 15.12. 13:00 3 l/m2 in 6 Std. Regen
So, 15.12. 7:00 4 l/m2 in 12 Std. -
So, 15.12. 1:00 4 l/m2 in 6 Std. Regen
Sa, 14.12. 19:00 3 l/m2 in 12 Std. Regen
Sa, 14.12. 13:00 2 l/m2 in 6 Std. Regen
Sa, 14.12. 7:00 2 l/m2 in 12 Std. Schnee, Regen
Sa, 14.12. 1:00 0.3 l/m2 in 6 Std. Schnee, Niederschlag
Ortszeit Niederschlagsmenge Niederschlagsart
So, 15.12. 22:30 0.0 l/m2 in 1 Std. -
So, 15.12. 22:20 keine Meldung -
So, 15.12. 22:10 keine Meldung -
So, 15.12. 22:00 0.0 l/m2 in 1 Std. Sprühregen
So, 15.12. 21:50 keine Meldung -
So, 15.12. 21:40 keine Meldung -
So, 15.12. 21:30 0.0 l/m2 in 1 Std. -
So, 15.12. 21:00 0.0 l/m2 in 1 Std. -
So, 15.12. 20:30 0.0 l/m2 in 1 Std. -
So, 15.12. 20:00 0.1 l/m2 in 1 Std. Sprühregen
So, 15.12. 19:30 0.1 l/m2 in 1 Std. Schnee
Ortszeit Stärke Spitze Richtung
km/h Bft. km/h Grad Sektor
So, 15.12. 19:00 25 4 79 240° SW
So, 15.12. 13:00 50 7 83 240° SW
So, 15.12. 7:00 18 3 50 160° S
So, 15.12. 1:00 30 5 54 230° SW
Sa, 14.12. 19:00 32 5 54 220° SW
Sa, 14.12. 13:00 20 4 54 220° SW
Sa, 14.12. 7:00 17 3 24 180° S
Sa, 14.12. 1:00 9 2 26 160° S
Ortszeit Stärke Spitze Richtung
km/h Bft. km/h Grad Sektor
So, 15.12. 22:30 22 4 35 230° SW
So, 15.12. 22:20 22 4 - 230° SW
So, 15.12. 22:10 24 4 - 230° SW
So, 15.12. 22:00 29 5 43 230° SW
So, 15.12. 21:50 29 5 - 230° SW
So, 15.12. 21:40 29 5 - 230° SW
So, 15.12. 21:30 26 4 44 240° SW
So, 15.12. 21:00 26 4 44 230° SW
So, 15.12. 20:30 28 4 44 230° SW
So, 15.12. 20:00 30 5 48 230° SW
So, 15.12. 19:30 28 4 46 240° SW
Ortszeit Untergrenze Bedeckung Gattung
total tief tief mittel hoch
So, 15.12. 19:00 750 m 7/8 7/8 - - -
So, 15.12. 13:00 1290 m 7/8 7/8 - - -
So, 15.12. 7:00 1800 m 8/8 3/8 - - -
So, 15.12. 1:00 600 m 7/8 5/8 - - -
Sa, 14.12. 19:00 3300 m 7/8 7/8 - - -
Sa, 14.12. 13:00 390 m 8/8 8/8 - - -
Sa, 14.12. 7:00 150 m 7/8 7/8 - - -
Sa, 14.12. 1:00 150 m 7/8 7/8 - - -
Ortszeit Bedeckungsgrad in Achtel und Wolkenuntergrenze
So, 15.12. 22:30 1(720m)
So, 15.12. 22:20 1(720m)
So, 15.12. 22:10 1(720m) 2(900m)
So, 15.12. 22:00 1(1170m)
So, 15.12. 21:50 1(1170m)
So, 15.12. 21:40 1(1170m)
So, 15.12. 21:30 1(1050m)
So, 15.12. 21:00 keine Wolken
So, 15.12. 20:30 keine Wolken
So, 15.12. 20:00 2(630m)
So, 15.12. 19:30 4(630m) 7(780m) 7(1140m)
Ortszeit Luftdruck NN (hPa) Tendenz (hPa in 3 Std.)
So, 15.12. 19:00 999 + 4,3
So, 15.12. 13:00 991 + 2,3
So, 15.12. 7:00 991 - 3,5
So, 15.12. 1:00 994 + 3,2
Sa, 14.12. 19:00 987 + 2,1
Sa, 14.12. 13:00 983 + 1,3
Sa, 14.12. 7:00 980 - 0,8
Sa, 14.12. 1:00 982 - 0,6
Ortszeit Luftdruck NN (hPa) Tendenz (hPa in 3 Std.)
So, 15.12. 22:30 1002 + 3,0
So, 15.12. 22:20 1002 keine Meldung
So, 15.12. 22:10 1002 keine Meldung
So, 15.12. 22:00 1002 + 3,1
So, 15.12. 21:50 1002 keine Meldung
So, 15.12. 21:40 1002 keine Meldung
So, 15.12. 21:30 1001 + 3,4
So, 15.12. 21:00 1001 + 3,4
So, 15.12. 20:30 1000 + 3,4
So, 15.12. 20:00 1000 + 3,6
So, 15.12. 19:30 999 + 4,2
Ortszeit Schneehöhe (cm)
So, 15.12. 19:00 0
So, 15.12. 13:00 0
So, 15.12. 7:00 0
So, 15.12. 1:00 0
Sa, 14.12. 19:00 0
Sa, 14.12. 13:00 0
Sa, 14.12. 7:00 0
Sa, 14.12. 1:00 0
Ortszeit Schneehöhe (cm)
So, 15.12. 22:30 0
So, 15.12. 22:20 0
So, 15.12. 22:10 0
So, 15.12. 22:00 0
So, 15.12. 21:50 0
So, 15.12. 21:40 0
So, 15.12. 21:30 0
So, 15.12. 21:00 0
So, 15.12. 20:30 0
So, 15.12. 20:00 0
So, 15.12. 19:30 0
Link zu dieser Seite / Seite empfehlen

Das Wetter in ...